sensor_id;sensor_type;location;lat;lon;timestamp;temperature;humidity
30290;DHT22;17105;55.652;37.710;2023-06-01T08:11:05;21.00;99.90
30290;DHT22;17105;55.652;37.710;2023-06-01T08:11:40;21.20;99.90
30290;DHT22;17105;55.652;37.710;2023-06-01T08:12:14;21.30;99.90
30290;DHT22;17105;55.652;37.710;2023-06-01T08:13:20;21.30;99.90
30290;DHT22;17105;55.652;37.710;2023-06-01T08:13:54;21.40;99.90
30290;DHT22;17105;55.652;37.710;2023-06-01T08:14:33;21.50;99.90
30290;DHT22;17105;55.652;37.710;2023-06-01T08:15:08;21.50;99.90
30290;DHT22;17105;55.652;37.710;2023-06-01T08:15:44;21.60;99.90
30290;DHT22;17105;55.652;37.710;2023-06-01T08:16:20;21.60;99.90
30290;DHT22;17105;55.652;37.710;2023-06-01T08:16:57;21.70;99.90
30290;DHT22;17105;55.652;37.710;2023-06-01T08:17:29;21.70;99.90
30290;DHT22;17105;55.652;37.710;2023-06-01T08:18:05;21.80;99.90
30290;DHT22;17105;55.652;37.710;2023-06-01T08:18:39;21.90;99.90
30290;DHT22;17105;55.652;37.710;2023-06-01T08:19:13;21.90;99.90
30290;DHT22;17105;55.652;37.710;2023-06-01T08:19:47;22.00;99.90
30290;DHT22;17105;55.652;37.710;2023-06-01T08:20:22;22.00;99.90
30290;DHT22;17105;55.652;37.710;2023-06-01T08:20:59;22.10;99.90
30290;DHT22;17105;55.652;37.710;2023-06-01T08:21:34;22.20;99.90
30290;DHT22;17105;55.652;37.710;2023-06-01T08:23:28;22.30;99.90
30290;DHT22;17105;55.652;37.710;2023-06-01T08:24:05;22.50;99.90
30290;DHT22;17105;55.652;37.710;2023-06-01T08:24:41;22.60;99.90
30290;DHT22;17105;55.652;37.710;2023-06-01T08:25:16;22.70;99.90
30290;DHT22;17105;55.652;37.710;2023-06-01T08:25:49;22.70;99.90
30290;DHT22;17105;55.652;37.710;2023-06-01T08:26:24;22.70;99.90
30290;DHT22;17105;55.652;37.710;2023-06-01T08:26:57;22.70;99.90
30290;DHT22;17105;55.652;37.710;2023-06-01T08:27:34;22.80;99.90
30290;DHT22;17105;55.652;37.710;2023-06-01T08:28:08;22.80;99.90
30290;DHT22;17105;55.652;37.710;2023-06-01T08:28:41;22.80;99.90
30290;DHT22;17105;55.652;37.710;2023-06-01T08:29:19;22.80;99.90
30290;DHT22;17105;55.652;37.710;2023-06-01T08:30:13;22.80;99.90
30290;DHT22;17105;55.652;37.710;2023-06-01T08:30:48;22.90;99.90
30290;DHT22;17105;55.652;37.710;2023-06-01T08:31:24;22.90;99.90
30290;DHT22;17105;55.652;37.710;2023-06-01T08:31:57;22.90;99.90
30290;DHT22;17105;55.652;37.710;2023-06-01T08:32:33;22.90;99.90
30290;DHT22;17105;55.652;37.710;2023-06-01T08:33:07;22.90;99.90
30290;DHT22;17105;55.652;37.710;2023-06-01T08:33:41;23.00;99.90
30290;DHT22;17105;55.652;37.710;2023-06-01T08:34:17;23.00;99.90
30290;DHT22;17105;55.652;37.710;2023-06-01T08:36:48;23.00;99.90
30290;DHT22;17105;55.652;37.710;2023-06-01T08:37:26;23.10;99.90
30290;DHT22;17105;55.652;37.710;2023-06-01T08:38:00;23.20;99.90
30290;DHT22;17105;55.652;37.710;2023-06-01T09:20:22;22.10;99.90
30290;DHT22;17105;55.652;37.710;2023-06-01T09:21:10;22.10;99.90
30290;DHT22;17105;55.652;37.710;2023-06-01T09:21:56;22.10;99.90
30290;DHT22;17105;55.652;37.710;2023-06-01T09:22:39;22.10;99.90
30290;DHT22;17105;55.652;37.710;2023-06-01T09:23:23;22.10;99.90
30290;DHT22;17105;55.652;37.710;2023-06-01T09:24:17;22.10;99.90
30290;DHT22;17105;55.652;37.710;2023-06-01T09:24:55;22.10;99.90
30290;DHT22;17105;55.652;37.710;2023-06-01T09:25:32;22.10;99.90
30290;DHT22;17105;55.652;37.710;2023-06-01T09:26:11;22.10;99.90
30290;DHT22;17105;55.652;37.710;2023-06-01T09:26:47;22.10;99.90
30290;DHT22;17105;55.652;37.710;2023-06-01T09:27:22;22.10;99.90
30290;DHT22;17105;55.652;37.710;2023-06-01T09:27:58;22.10;99.90
30290;DHT22;17105;55.652;37.710;2023-06-01T09:28:52;22.10;99.90
30290;DHT22;17105;55.652;37.710;2023-06-01T09:29:27;22.10;99.90
30290;DHT22;17105;55.652;37.710;2023-06-01T09:30:05;22.10;99.90
30290;DHT22;17105;55.652;37.710;2023-06-01T09:30:42;22.10;99.90
30290;DHT22;17105;55.652;37.710;2023-06-01T09:31:35;22.10;99.90
30290;DHT22;17105;55.652;37.710;2023-06-01T09:32:19;22.10;99.90
30290;DHT22;17105;55.652;37.710;2023-06-01T09:33:11;22.10;99.90
30290;DHT22;17105;55.652;37.710;2023-06-01T09:33:59;22.10;99.80
30290;DHT22;17105;55.652;37.710;2023-06-01T09:34:43;22.10;99.50
30290;DHT22;17105;55.652;37.710;2023-06-01T09:35:37;22.10;99.20
30290;DHT22;17105;55.652;37.710;2023-06-01T09:36:23;22.10;98.70
30290;DHT22;17105;55.652;37.710;2023-06-01T09:37:05;22.10;98.20
30290;DHT22;17105;55.652;37.710;2023-06-01T09:37:54;22.10;97.60
30290;DHT22;17105;55.652;37.710;2023-06-01T09:38:28;22.10;96.80
30290;DHT22;17105;55.652;37.710;2023-06-01T09:39:05;22.10;96.30
30290;DHT22;17105;55.652;37.710;2023-06-01T09:39:39;22.20;95.70
30290;DHT22;17105;55.652;37.710;2023-06-01T09:40:18;22.20;95.00
30290;DHT22;17105;55.652;37.710;2023-06-01T09:40:58;22.20;94.30
30290;DHT22;17105;55.652;37.710;2023-06-01T10:25:41;21.50;66.50
30290;DHT22;17105;55.652;37.710;2023-06-01T10:26:18;21.60;67.20
30290;DHT22;17105;55.652;37.710;2023-06-01T10:27:01;21.60;67.20
30290;DHT22;17105;55.652;37.710;2023-06-01T10:27:43;21.60;67.20
30290;DHT22;17105;55.652;37.710;2023-06-01T10:28:19;21.60;67.40
30290;DHT22;17105;55.652;37.710;2023-06-01T10:28:55;21.60;67.50
30290;DHT22;17105;55.652;37.710;2023-06-01T10:29:32;21.60;67.60
30290;DHT22;17105;55.652;37.710;2023-06-01T10:30:08;21.60;67.60
30290;DHT22;17105;55.652;37.710;2023-06-01T10:30:43;21.60;67.60
30290;DHT22;17105;55.652;37.710;2023-06-01T10:31:39;21.60;67.70
30290;DHT22;17105;55.652;37.710;2023-06-01T10:32:40;21.60;67.70
30290;DHT22;17105;55.652;37.710;2023-06-01T10:33:14;21.60;67.70
30290;DHT22;17105;55.652;37.710;2023-06-01T10:33:57;21.50;67.90
30290;DHT22;17105;55.652;37.710;2023-06-01T10:34:42;21.60;67.90
30290;DHT22;17105;55.652;37.710;2023-06-01T10:37:35;21.50;67.90
30290;DHT22;17105;55.652;37.710;2023-06-01T10:38:27;21.50;68.20
30290;DHT22;17105;55.652;37.710;2023-06-01T10:39:22;21.60;68.00
30290;DHT22;17105;55.652;37.710;2023-06-01T10:40:19;21.60;68.10
30290;DHT22;17105;55.652;37.710;2023-06-01T10:41:27;21.50;68.10
30290;DHT22;17105;55.652;37.710;2023-06-01T10:42:35;21.60;68.30
30290;DHT22;17105;55.652;37.710;2023-06-01T10:45:37;21.50;68.70
30290;DHT22;17105;55.652;37.710;2023-06-01T10:46:34;21.50;68.80
30290;DHT22;17105;55.652;37.710;2023-06-01T10:47:45;21.50;68.90
30290;DHT22;17105;55.652;37.710;2023-06-01T10:48:50;21.50;69.00
30290;DHT22;17105;55.652;37.710;2023-06-01T10:50:36;21.50;69.20
30290;DHT22;17105;55.652;37.710;2023-06-01T10:51:17;21.50;69.40
30290;DHT22;17105;55.652;37.710;2023-06-01T10:52:23;21.50;69.40
30290;DHT22;17105;55.652;37.710;2023-06-01T10:53:24;21.40;69.30
30290;DHT22;17105;55.652;37.710;2023-06-01T10:54:32;21.50;69.50
30290;DHT22;17105;55.652;37.710;2023-06-01T10:55:23;21.40;69.60
30290;DHT22;17105;55.652;37.710;2023-06-01T10:58:19;21.40;70.00
30290;DHT22;17105;55.652;37.710;2023-06-01T10:59:11;21.40;70.00
30290;DHT22;17105;55.652;37.710;2023-06-01T11:00:10;21.40;70.00
30290;DHT22;17105;55.652;37.710;2023-06-01T11:00:45;21.40;70.00
30290;DHT22;17105;55.652;37.710;2023-06-01T11:01:20;21.40;70.10
30290;DHT22;17105;55.652;37.710;2023-06-01T11:02:03;21.40;70.00
30290;DHT22;17105;55.652;37.710;2023-06-01T11:03:44;21.40;70.10
30290;DHT22;17105;55.652;37.710;2023-06-01T11:04:34;21.50;71.20
30290;DHT22;17105;55.652;37.710;2023-06-01T11:06:23;21.60;71.50
30290;DHT22;17105;55.652;37.710;2023-06-01T11:07:35;21.80;68.00
30290;DHT22;17105;55.652;37.710;2023-06-01T11:09:22;22.10;69.10
30290;DHT22;17105;55.652;37.710;2023-06-01T11:11:56;22.30;69.10
30290;DHT22;17105;55.652;37.710;2023-06-01T11:13:10;22.40;68.60
30290;DHT22;17105;55.652;37.710;2023-06-01T11:14:11;22.50;67.10
30290;DHT22;17105;55.652;37.710;2023-06-01T11:15:08;22.50;65.60
30290;DHT22;17105;55.652;37.710;2023-06-01T11:17:25;22.40;63.10
30290;DHT22;17105;55.652;37.710;2023-06-01T11:19:09;22.20;61.10
30290;DHT22;17105;55.652;37.710;2023-06-01T11:19:45;22.10;60.50
30290;DHT22;17105;55.652;37.710;2023-06-01T11:20:20;22.00;60.20
30290;DHT22;17105;55.652;37.710;2023-06-01T11:20:53;21.90;59.90
30290;DHT22;17105;55.652;37.710;2023-06-01T11:21:30;21.90;59.60
30290;DHT22;17105;55.652;37.710;2023-06-01T11:22:05;21.80;59.40
30290;DHT22;17105;55.652;37.710;2023-06-01T11:22:40;21.70;59.30
30290;DHT22;17105;55.652;37.710;2023-06-01T11:23:15;21.60;58.60
30290;DHT22;17105;55.652;37.710;2023-06-01T11:23:48;21.60;59.10
30290;DHT22;17105;55.652;37.710;2023-06-01T11:24:24;21.50;59.00
30290;DHT22;17105;55.652;37.710;2023-06-01T11:25:03;21.50;59.00
30290;DHT22;17105;55.652;37.710;2023-06-01T11:25:42;21.40;58.90
30290;DHT22;17105;55.652;37.710;2023-06-01T11:26:17;21.30;58.80
30290;DHT22;17105;55.652;37.710;2023-06-01T11:26:50;21.30;58.80
30290;DHT22;17105;55.652;37.710;2023-06-01T11:27:25;21.20;58.80
30290;DHT22;17105;55.652;37.710;2023-06-01T11:27:59;21.20;58.80
30290;DHT22;17105;55.652;37.710;2023-06-01T11:28:33;21.10;58.70
30290;DHT22;17105;55.652;37.710;2023-06-01T11:29:10;21.10;58.70
30290;DHT22;17105;55.652;37.710;2023-06-01T11:29:48;21.00;58.60
30290;DHT22;17105;55.652;37.710;2023-06-01T11:30:23;20.90;58.40
30290;DHT22;17105;55.652;37.710;2023-06-01T11:30:56;20.90;58.20
30290;DHT22;17105;55.652;37.710;2023-06-01T11:31:35;20.80;58.10
30290;DHT22;17105;55.652;37.710;2023-06-01T11:32:13;20.80;57.90
30290;DHT22;17105;55.652;37.710;2023-06-01T11:32:48;20.80;57.80
30290;DHT22;17105;55.652;37.710;2023-06-01T11:33:27;20.70;57.70
30290;DHT22;17105;55.652;37.710;2023-06-01T11:34:08;20.70;57.50
30290;DHT22;17105;55.652;37.710;2023-06-01T11:34:43;20.60;57.30
30290;DHT22;17105;55.652;37.710;2023-06-01T11:35:19;20.60;57.30
30290;DHT22;17105;55.652;37.710;2023-06-01T11:35:57;20.50;57.30
30290;DHT22;17105;55.652;37.710;2023-06-01T11:36:40;20.50;57.30
30290;DHT22;17105;55.652;37.710;2023-06-01T11:37:15;20.40;57.20
30290;DHT22;17105;55.652;37.710;2023-06-01T11:37:56;20.40;57.20
30290;DHT22;17105;55.652;37.710;2023-06-01T11:38:33;20.30;57.10
30290;DHT22;17105;55.652;37.710;2023-06-01T11:39:22;20.30;57.20
30290;DHT22;17105;55.652;37.710;2023-06-01T11:40:05;20.20;57.10
30290;DHT22;17105;55.652;37.710;2023-06-01T11:40:58;20.20;57.10
30290;DHT22;17105;55.652;37.710;2023-06-01T11:41:33;20.20;57.10
30290;DHT22;17105;55.652;37.710;2023-06-01T11:42:09;20.10;57.10
30290;DHT22;17105;55.652;37.710;2023-06-01T11:42:45;20.10;57.00
30290;DHT22;17105;55.652;37.710;2023-06-01T11:43:26;20.00;57.00
30290;DHT22;17105;55.652;37.710;2023-06-01T11:44:02;20.00;56.90
30290;DHT22;17105;55.652;37.710;2023-06-01T11:44:36;20.00;56.90
30290;DHT22;17105;55.652;37.710;2023-06-01T11:45:17;19.90;56.90
30290;DHT22;17105;55.652;37.710;2023-06-01T11:45:59;19.90;56.90
30290;DHT22;17105;55.652;37.710;2023-06-01T11:46:53;19.90;57.10
30290;DHT22;17105;55.652;37.710;2023-06-01T11:47:31;19.80;57.40
30290;DHT22;17105;55.652;37.710;2023-06-01T11:48:11;19.80;57.70
30290;DHT22;17105;55.652;37.710;2023-06-01T11:48:58;19.80;57.90
30290;DHT22;17105;55.652;37.710;2023-06-01T11:49:41;19.80;58.10
30290;DHT22;17105;55.652;37.710;2023-06-01T11:50:21;19.80;58.10
30290;DHT22;17105;55.652;37.710;2023-06-01T11:50:55;19.70;58.20
30290;DHT22;17105;55.652;37.710;2023-06-01T11:51:32;19.70;58.20
30290;DHT22;17105;55.652;37.710;2023-06-01T11:52:09;19.70;58.30
30290;DHT22;17105;55.652;37.710;2023-06-01T11:52:45;19.70;58.40
30290;DHT22;17105;55.652;37.710;2023-06-01T11:53:19;19.70;58.40
30290;DHT22;17105;55.652;37.710;2023-06-01T11:53:55;19.70;58.50
30290;DHT22;17105;55.652;37.710;2023-06-01T11:54:30;19.70;58.40
30290;DHT22;17105;55.652;37.710;2023-06-01T11:55:05;19.70;58.40
30290;DHT22;17105;55.652;37.710;2023-06-01T11:55:49;19.70;58.50
30290;DHT22;17105;55.652;37.710;2023-06-01T11:56:29;19.60;58.50
30290;DHT22;17105;55.652;37.710;2023-06-01T11:57:03;19.60;58.60
30290;DHT22;17105;55.652;37.710;2023-06-01T11:57:43;19.60;58.60
30290;DHT22;17105;55.652;37.710;2023-06-01T11:58:21;19.60;58.60
30290;DHT22;17105;55.652;37.710;2023-06-01T11:58:59;19.60;58.60
30290;DHT22;17105;55.652;37.710;2023-06-01T11:59:37;19.60;58.50
30290;DHT22;17105;55.652;37.710;2023-06-01T12:00:14;19.60;58.50
30290;DHT22;17105;55.652;37.710;2023-06-01T12:00:48;19.60;58.50
30290;DHT22;17105;55.652;37.710;2023-06-01T12:01:23;19.50;58.50
30290;DHT22;17105;55.652;37.710;2023-06-01T12:01:58;19.50;58.50
30290;DHT22;17105;55.652;37.710;2023-06-01T12:02:32;19.50;58.50
30290;DHT22;17105;55.652;37.710;2023-06-01T12:03:06;19.50;58.40
30290;DHT22;17105;55.652;37.710;2023-06-01T12:03:45;19.50;58.50
30290;DHT22;17105;55.652;37.710;2023-06-01T12:04:22;19.50;58.50
30290;DHT22;17105;55.652;37.710;2023-06-01T12:05:00;19.50;58.60
30290;DHT22;17105;55.652;37.710;2023-06-01T12:05:39;19.50;58.60
30290;DHT22;17105;55.652;37.710;2023-06-01T12:06:19;19.50;58.70
30290;DHT22;17105;55.652;37.710;2023-06-01T12:07:04;19.50;58.70
30290;DHT22;17105;55.652;37.710;2023-06-01T12:07:46;19.50;58.60
30290;DHT22;17105;55.652;37.710;2023-06-01T12:08:22;19.40;58.70
30290;DHT22;17105;55.652;37.710;2023-06-01T12:08:59;19.40;58.60
30290;DHT22;17105;55.652;37.710;2023-06-01T12:09:35;19.50;58.60
30290;DHT22;17105;55.652;37.710;2023-06-01T12:10:10;19.40;58.50
30290;DHT22;17105;55.652;37.710;2023-06-01T12:10:48;19.40;58.50
30290;DHT22;17105;55.652;37.710;2023-06-01T12:11:25;19.40;58.50
30290;DHT22;17105;55.652;37.710;2023-06-01T12:12:00;19.40;58.50
30290;DHT22;17105;55.652;37.710;2023-06-01T12:12:34;19.40;58.60
30290;DHT22;17105;55.652;37.710;2023-06-01T12:13:10;19.40;59.10
30290;DHT22;17105;55.652;37.710;2023-06-01T12:13:44;19.40;59.90
30290;DHT22;17105;55.652;37.710;2023-06-01T12:14:21;19.40;60.60
30290;DHT22;17105;55.652;37.710;2023-06-01T12:14:56;19.40;61.30
30290;DHT22;17105;55.652;37.710;2023-06-01T12:15:31;19.40;61.80
30290;DHT22;17105;55.652;37.710;2023-06-01T12:16:06;19.40;62.80
30290;DHT22;17105;55.652;37.710;2023-06-01T12:16:56;19.40;62.70
30290;DHT22;17105;55.652;37.710;2023-06-01T12:17:46;19.40;63.20
30290;DHT22;17105;55.652;37.710;2023-06-01T12:18:29;19.40;63.50
30290;DHT22;17105;55.652;37.710;2023-06-01T12:19:09;19.40;63.80
30290;DHT22;17105;55.652;37.710;2023-06-01T12:19:47;19.40;63.90
30290;DHT22;17105;55.652;37.710;2023-06-01T12:20:30;19.40;64.10
30290;DHT22;17105;55.652;37.710;2023-06-01T12:21:11;19.40;64.10
30290;DHT22;17105;55.652;37.710;2023-06-01T12:21:47;19.40;64.20
30290;DHT22;17105;55.652;37.710;2023-06-01T12:22:30;19.40;64.20
30290;DHT22;17105;55.652;37.710;2023-06-01T12:23:13;19.40;64.20
30290;DHT22;17105;55.652;37.710;2023-06-01T12:23:51;19.40;64.20
30290;DHT22;17105;55.652;37.710;2023-06-01T12:24:28;19.40;64.10
30290;DHT22;17105;55.652;37.710;2023-06-01T12:25:05;19.40;64.00
30290;DHT22;17105;55.652;37.710;2023-06-01T12:25:49;19.40;63.90
30290;DHT22;17105;55.652;37.710;2023-06-01T12:26:35;19.40;63.80
30290;DHT22;17105;55.652;37.710;2023-06-01T12:27:13;19.40;63.70
30290;DHT22;17105;55.652;37.710;2023-06-01T12:28:00;19.40;63.60
30290;DHT22;17105;55.652;37.710;2023-06-01T12:28:49;19.40;63.50
30290;DHT22;17105;55.652;37.710;2023-06-01T12:29:37;19.40;63.40
30290;DHT22;17105;55.652;37.710;2023-06-01T12:30:20;19.30;63.10
30290;DHT22;17105;55.652;37.710;2023-06-01T12:31:08;19.40;63.10
30290;DHT22;17105;55.652;37.710;2023-06-01T12:31:54;19.30;62.80
30290;DHT22;17105;55.652;37.710;2023-06-01T12:32:37;19.30;62.70
30290;DHT22;17105;55.652;37.710;2023-06-01T12:33:31;19.30;62.60
30290;DHT22;17105;55.652;37.710;2023-06-01T12:34:16;19.30;62.50
30290;DHT22;17105;55.652;37.710;2023-06-01T12:35:04;19.30;62.40
30290;DHT22;17105;55.652;37.710;2023-06-01T12:35:49;19.30;62.40
30290;DHT22;17105;55.652;37.710;2023-06-01T12:36:31;19.30;62.50
30290;DHT22;17105;55.652;37.710;2023-06-01T12:37:12;19.30;62.40
30290;DHT22;17105;55.652;37.710;2023-06-01T12:38:07;19.30;62.20
30290;DHT22;17105;55.652;37.710;2023-06-01T12:38:50;19.30;62.00
30290;DHT22;17105;55.652;37.710;2023-06-01T12:39:35;19.30;61.80
30290;DHT22;17105;55.652;37.710;2023-06-01T12:40:23;19.30;61.50
30290;DHT22;17105;55.652;37.710;2023-06-01T12:41:09;19.30;61.40
30290;DHT22;17105;55.652;37.710;2023-06-01T12:41:48;19.30;61.40
30290;DHT22;17105;55.652;37.710;2023-06-01T12:42:34;19.20;61.30
30290;DHT22;17105;55.652;37.710;2023-06-01T12:43:18;19.20;61.30
30290;DHT22;17105;55.652;37.710;2023-06-01T12:43:54;19.20;61.30
30290;DHT22;17105;55.652;37.710;2023-06-01T12:44:30;19.20;61.30
30290;DHT22;17105;55.652;37.710;2023-06-01T12:45:05;19.20;61.20
30290;DHT22;17105;55.652;37.710;2023-06-01T12:45:40;19.20;61.20
30290;DHT22;17105;55.652;37.710;2023-06-01T12:46:18;19.20;61.10
30290;DHT22;17105;55.652;37.710;2023-06-01T12:46:57;19.20;61.00
30290;DHT22;17105;55.652;37.710;2023-06-01T12:47:35;19.20;60.90
30290;DHT22;17105;55.652;37.710;2023-06-01T12:48:29;19.20;60.80
30290;DHT22;17105;55.652;37.710;2023-06-01T12:49:21;19.20;60.70
30290;DHT22;17105;55.652;37.710;2023-06-01T12:50:03;19.20;60.70
30290;DHT22;17105;55.652;37.710;2023-06-01T12:50:43;19.20;60.70
30290;DHT22;17105;55.652;37.710;2023-06-01T12:51:20;19.20;60.60
30290;DHT22;17105;55.652;37.710;2023-06-01T12:51:56;19.20;60.60
30290;DHT22;17105;55.652;37.710;2023-06-01T12:52:30;19.10;60.50
30290;DHT22;17105;55.652;37.710;2023-06-01T12:53:05;19.20;60.60
30290;DHT22;17105;55.652;37.710;2023-06-01T12:53:40;19.10;60.50
30290;DHT22;17105;55.652;37.710;2023-06-01T12:54:14;19.10;60.50
30290;DHT22;17105;55.652;37.710;2023-06-01T12:54:51;19.10;60.50
30290;DHT22;17105;55.652;37.710;2023-06-01T12:55:24;19.10;60.50
30290;DHT22;17105;55.652;37.710;2023-06-01T12:55:59;19.10;60.40
30290;DHT22;17105;55.652;37.710;2023-06-01T12:56:33;19.10;60.40
30290;DHT22;17105;55.652;37.710;2023-06-01T12:57:12;19.10;60.30
30290;DHT22;17105;55.652;37.710;2023-06-01T12:57:52;19.10;60.30
30290;DHT22;17105;55.652;37.710;2023-06-01T12:58:27;19.10;60.30
30290;DHT22;17105;55.652;37.710;2023-06-01T12:59:01;19.10;60.30
30290;DHT22;17105;55.652;37.710;2023-06-01T12:59:36;19.10;60.20
30290;DHT22;17105;55.652;37.710;2023-06-01T13:00:11;19.10;60.20
30290;DHT22;17105;55.652;37.710;2023-06-01T13:00:46;19.00;60.10
30290;DHT22;17105;55.652;37.710;2023-06-01T13:01:29;19.00;60.10
30290;DHT22;17105;55.652;37.710;2023-06-01T13:02:05;19.10;60.10
30290;DHT22;17105;55.652;37.710;2023-06-01T13:02:41;19.10;60.00
30290;DHT22;17105;55.652;37.710;2023-06-01T13:03:15;19.00;60.00
30290;DHT22;17105;55.652;37.710;2023-06-01T13:03:50;19.00;59.90
30290;DHT22;17105;55.652;37.710;2023-06-01T13:04:28;19.00;59.90
30290;DHT22;17105;55.652;37.710;2023-06-01T13:05:02;19.00;59.90
30290;DHT22;17105;55.652;37.710;2023-06-01T13:05:41;19.00;59.80
30290;DHT22;17105;55.652;37.710;2023-06-01T13:06:20;19.00;59.80
30290;DHT22;17105;55.652;37.710;2023-06-01T13:06:56;19.00;59.80
30290;DHT22;17105;55.652;37.710;2023-06-01T13:07:29;19.00;59.80
30290;DHT22;17105;55.652;37.710;2023-06-01T13:08:04;19.00;59.70
30290;DHT22;17105;55.652;37.710;2023-06-01T13:08:39;19.00;59.80
30290;DHT22;17105;55.652;37.710;2023-06-01T13:09:12;19.00;59.90
30290;DHT22;17105;55.652;37.710;2023-06-01T13:09:47;19.00;60.00
30290;DHT22;17105;55.652;37.710;2023-06-01T13:10:23;19.00;60.10
30290;DHT22;17105;55.652;37.710;2023-06-01T13:10:57;19.00;60.30
30290;DHT22;17105;55.652;37.710;2023-06-01T18:02:48;18.60;61.30
30290;DHT22;17105;55.652;37.710;2023-06-01T18:03:22;18.60;61.80
30290;DHT22;17105;55.652;37.710;2023-06-01T18:03:57;18.70;61.70
30290;DHT22;17105;55.652;37.710;2023-06-01T18:04:31;18.70;61.60
30290;DHT22;17105;55.652;37.710;2023-06-01T18:05:07;18.70;61.50
30290;DHT22;17105;55.652;37.710;2023-06-01T18:05:41;18.80;61.50
30290;DHT22;17105;55.652;37.710;2023-06-01T18:06:15;18.80;61.30
30290;DHT22;17105;55.652;37.710;2023-06-01T18:06:51;18.80;61.20
30290;DHT22;17105;55.652;37.710;2023-06-01T18:07:25;18.80;61.10
30290;DHT22;17105;55.652;37.710;2023-06-01T18:08:01;18.80;61.00
30290;DHT22;17105;55.652;37.710;2023-06-01T18:08:35;18.80;60.90
30290;DHT22;17105;55.652;37.710;2023-06-01T18:09:10;18.90;61.00
30290;DHT22;17105;55.652;37.710;2023-06-01T18:09:45;18.90;60.90
30290;DHT22;17105;55.652;37.710;2023-06-01T18:10:19;18.90;60.80
30290;DHT22;17105;55.652;37.710;2023-06-01T18:10:53;18.90;60.80
30290;DHT22;17105;55.652;37.710;2023-06-01T18:11:28;18.90;60.70
30290;DHT22;17105;55.652;37.710;2023-06-01T18:12:05;18.90;60.70
30290;DHT22;17105;55.652;37.710;2023-06-01T18:12:44;18.90;60.60
30290;DHT22;17105;55.652;37.710;2023-06-01T18:13:19;18.90;60.60
30290;DHT22;17105;55.652;37.710;2023-06-01T18:13:54;19.00;60.60
30290;DHT22;17105;55.652;37.710;2023-06-01T18:14:30;18.90;60.50
30290;DHT22;17105;55.652;37.710;2023-06-01T18:15:04;18.90;60.50
30290;DHT22;17105;55.652;37.710;2023-06-01T18:15:39;18.90;60.40
30290;DHT22;17105;55.652;37.710;2023-06-01T18:16:14;18.90;60.40
30290;DHT22;17105;55.652;37.710;2023-06-01T18:16:48;18.90;60.40
30290;DHT22;17105;55.652;37.710;2023-06-01T18:17:24;18.90;60.30
30290;DHT22;17105;55.652;37.710;2023-06-01T18:18:00;18.90;60.30
30290;DHT22;17105;55.652;37.710;2023-06-01T18:18:34;18.90;60.30
30290;DHT22;17105;55.652;37.710;2023-06-01T18:19:09;18.90;60.30
30290;DHT22;17105;55.652;37.710;2023-06-01T18:19:42;18.90;60.30
30290;DHT22;17105;55.652;37.710;2023-06-01T18:20:17;18.90;60.30
30290;DHT22;17105;55.652;37.710;2023-06-01T18:20:52;18.90;60.20
30290;DHT22;17105;55.652;37.710;2023-06-01T18:21:25;18.90;60.30
30290;DHT22;17105;55.652;37.710;2023-06-01T18:21:59;18.90;60.20
30290;DHT22;17105;55.652;37.710;2023-06-01T18:22:34;18.90;60.20
30290;DHT22;17105;55.652;37.710;2023-06-01T18:23:09;18.90;60.20
30290;DHT22;17105;55.652;37.710;2023-06-01T18:23:44;18.90;60.20
30290;DHT22;17105;55.652;37.710;2023-06-01T18:24:20;18.90;60.20
30290;DHT22;17105;55.652;37.710;2023-06-01T18:24:54;18.90;60.20
30290;DHT22;17105;55.652;37.710;2023-06-01T18:25:30;18.90;60.20
30290;DHT22;17105;55.652;37.710;2023-06-01T18:26:03;18.90;60.10
30290;DHT22;17105;55.652;37.710;2023-06-01T18:26:36;18.90;60.10
30290;DHT22;17105;55.652;37.710;2023-06-01T18:27:11;18.90;60.10
30290;DHT22;17105;55.652;37.710;2023-06-01T18:27:46;18.90;60.10
30290;DHT22;17105;55.652;37.710;2023-06-01T18:28:20;18.90;60.10
30290;DHT22;17105;55.652;37.710;2023-06-01T18:28:54;18.90;60.10
30290;DHT22;17105;55.652;37.710;2023-06-01T18:29:30;18.90;60.10
30290;DHT22;17105;55.652;37.710;2023-06-01T18:30:08;18.90;60.10
30290;DHT22;17105;55.652;37.710;2023-06-01T18:30:43;18.90;60.10
30290;DHT22;17105;55.652;37.710;2023-06-01T18:31:15;18.90;60.00
30290;DHT22;17105;55.652;37.710;2023-06-01T18:31:50;18.90;60.00
30290;DHT22;17105;55.652;37.710;2023-06-01T18:32:25;18.90;60.00
30290;DHT22;17105;55.652;37.710;2023-06-01T18:33:00;18.90;60.00
30290;DHT22;17105;55.652;37.710;2023-06-01T18:33:34;18.90;60.00
30290;DHT22;17105;55.652;37.710;2023-06-01T18:34:08;18.80;60.00
30290;DHT22;17105;55.652;37.710;2023-06-01T18:34:42;18.80;60.00
30290;DHT22;17105;55.652;37.710;2023-06-01T18:35:17;18.80;59.90
30290;DHT22;17105;55.652;37.710;2023-06-01T18:35:51;18.80;59.90
30290;DHT22;17105;55.652;37.710;2023-06-01T18:36:25;18.80;59.90
30290;DHT22;17105;55.652;37.710;2023-06-01T18:37:01;18.80;59.90
30290;DHT22;17105;55.652;37.710;2023-06-01T18:37:35;18.90;60.00
30290;DHT22;17105;55.652;37.710;2023-06-01T18:38:09;18.80;59.90
30290;DHT22;17105;55.652;37.710;2023-06-01T18:38:45;18.80;59.90
30290;DHT22;17105;55.652;37.710;2023-06-01T18:39:20;18.80;59.90
30290;DHT22;17105;55.652;37.710;2023-06-01T18:39:56;18.80;59.90
30290;DHT22;17105;55.652;37.710;2023-06-01T18:40:31;18.80;59.90
30290;DHT22;17105;55.652;37.710;2023-06-01T18:41:05;18.80;59.90
30290;DHT22;17105;55.652;37.710;2023-06-01T18:41:39;18.80;59.90
30290;DHT22;17105;55.652;37.710;2023-06-01T18:42:33;18.80;59.90
30290;DHT22;17105;55.652;37.710;2023-06-01T18:43:09;18.80;59.90
30290;DHT22;17105;55.652;37.710;2023-06-01T18:43:50;18.80;59.90
30290;DHT22;17105;55.652;37.710;2023-06-01T18:44:26;18.80;59.90
30290;DHT22;17105;55.652;37.710;2023-06-01T18:44:59;18.80;59.90
30290;DHT22;17105;55.652;37.710;2023-06-01T18:45:35;18.80;60.50
30290;DHT22;17105;55.652;37.710;2023-06-01T18:46:11;18.80;61.10
30290;DHT22;17105;55.652;37.710;2023-06-01T18:46:44;18.80;61.50
30290;DHT22;17105;55.652;37.710;2023-06-01T18:47:17;18.80;61.60
30290;DHT22;17105;55.652;37.710;2023-06-01T18:47:53;18.80;61.80
30290;DHT22;17105;55.652;37.710;2023-06-01T18:48:28;18.80;62.00
30290;DHT22;17105;55.652;37.710;2023-06-01T18:49:02;18.80;62.30
30290;DHT22;17105;55.652;37.710;2023-06-01T18:49:39;18.90;62.40
30290;DHT22;17105;55.652;37.710;2023-06-01T18:50:15;18.90;62.60
30290;DHT22;17105;55.652;37.710;2023-06-01T18:50:49;18.90;62.50